Terminal Aerodrome Forecast
Issued by NWS

Home | Current Version | Previous Version | Text Only | Print | Product List | Glossary On
Versions: 1 2 3 4 5 6 7 8 9 10 11 12 13 14 15 16 17 18
000
FTUS44 KLZK 011500 AAB
TAFPBF
TAF AMD
KPBF 011526Z 0115/0212 19015G25KT 6SM -SHRA OVC009
     FM012100 28014G24KT P6SM VCSH SCT030 BKN060
     FM020300 31012G22KT P6SM SCT060 SCT250=

USA.gov is the U.S. government's official web portal to all federal, state and local government web resources and services.